Track Арбузов Дмитрий

Time Latitude Longitude Accuracy (66% radius in meters) Altitude (meters) Speed (km/hour) Bearing (degrees) Battery (%) GPS flag
10:59:04 59.871172 30.124536 0 0 0 0 1 delete
10:58:58 59.871451 30.124386 0 0 0 0 1 delete
10:58:52 59.871842 30.124266 0 0 0 0 1 delete
10:58:48 59.872111 30.124206 0 0 0 0 1 delete
10:58:44 59.872380 30.124164 0 0 0 0 1 delete
10:58:42 59.872505 30.124188 0 0 0 0 1 delete
10:58:28 59.872818 30.124392 0 0 0 0 1 delete
10:58:08 59.872675 30.124240 0 0 0 0 1 delete
10:58:01 59.872346 30.123874 0 0 0 0 1 delete
10:58:00 59.872301 30.123824 0 0 0 0 1 delete
10:57:59 59.872258 30.123791 0 0 0 0 1 delete
10:57:53 59.872215 30.123863 0 0 0 0 1 delete
10:57:48 59.872388 30.123732 0 0 0 0 1 delete
10:57:47 59.872434 30.123694 0 0 0 0 1 delete
10:57:44 59.872575 30.123620 0 0 0 0 1 delete
10:57:40 59.872671 30.123627 0 0 0 0 1 delete
10:57:38 59.872688 30.123642 0 0 0 0 1 delete
10:57:34 59.872657 30.123713 0 0 0 0 1 delete
10:57:33 59.872645 30.123695 0 0 0 0 1 delete
10:57:19 59.872411 30.122897 0 0 0 0 1 delete
10:57:16 59.872366 30.122778 0 0 0 0 1 delete
10:57:13 59.872335 30.122708 0 0 0 0 1 delete
10:56:36 59.872316 30.122715 0 0 0 0 1 delete
10:56:25 59.872082 30.122825 0 0 0 0 1 delete
10:56:22 59.871974 30.122805 0 0 0 0 1 delete
10:56:20 59.871893 30.122753 0 0 0 0 1 delete
10:56:15 59.871711 30.122445 0 0 0 0 1 delete
10:56:05 59.871435 30.121817 0 0 0 0 1 delete
10:56:04 59.871401 30.121764 0 0 0 0 1 delete
10:56:02 59.871343 30.121672 0 0 0 0 1 delete
10:56:00 59.871300 30.121605 0 0 0 0 1 delete
10:55:56 59.871265 30.121605 0 0 0 0 1 delete
10:55:49 59.871271 30.121661 0 0 0 0 1 delete
10:55:47 59.871308 30.121626 0 0 0 0 1 delete
10:55:31 59.871760 30.121469 0 0 0 0 1 delete
10:55:29 59.871787 30.121516 0 0 0 0 1 delete
10:55:13 59.871834 30.121929 0 0 0 0 1 delete
10:55:01 59.872184 30.122444 0 0 0 0 1 delete
10:54:54 59.872558 30.123083 0 0 0 0 1 delete
10:54:53 59.872595 30.123206 0 0 0 0 1 delete
10:54:45 59.872805 30.124154 0 0 0 0 1 delete
10:54:42 59.872857 30.124484 0 0 0 0 1 delete
10:54:39 59.872948 30.124908 0 0 0 0 1 delete
10:54:33 59.873141 30.125847 0 0 0 0 1 delete
10:54:31 59.873214 30.126142 0 0 0 0 1 delete
10:54:25 59.873364 30.127100 0 0 0 0 1 delete
10:54:22 59.873453 30.127517 0 0 0 0 1 delete
10:54:16 59.873610 30.128478 0 0 0 0 1 delete
10:54:13 59.873704 30.128856 0 0 0 0 1 delete
10:54:07 59.873889 30.129816 0 0 0 0 1 delete